sensor_id;sensor_type;location;lat;lon;timestamp;pressure;altitude;pressure_sealevel;temperature;humidity
83373;BME280;73281;50.882;5.984;2023-12-07T00:01:06;99464.00;;;16.06;54.08
83373;BME280;73281;50.882;5.984;2023-12-07T00:03:31;99479.56;;;16.09;54.12
83373;BME280;73281;50.882;5.984;2023-12-07T00:05:57;99481.50;;;16.09;53.88
83373;BME280;73281;50.882;5.984;2023-12-07T00:08:22;99469.84;;;16.08;54.20
83373;BME280;73281;50.882;5.984;2023-12-07T00:10:48;99477.25;;;16.08;54.04
83373;BME280;73281;50.882;5.984;2023-12-07T00:13:13;99481.91;;;16.07;53.69
83373;BME280;73281;50.882;5.984;2023-12-07T00:15:38;99479.19;;;16.07;53.71
83373;BME280;73281;50.882;5.984;2023-12-07T00:18:04;99476.47;;;16.07;54.05
83373;BME280;73281;50.882;5.984;2023-12-07T00:20:29;99478.44;;;16.07;53.79
83373;BME280;73281;50.882;5.984;2023-12-07T00:22:55;99472.59;;;16.05;53.87
83373;BME280;73281;50.882;5.984;2023-12-07T00:25:21;99470.69;;;16.02;53.84
83373;BME280;73281;50.882;5.984;2023-12-07T00:27:47;99467.94;;;16.02;53.22
83373;BME280;73281;50.882;5.984;2023-12-07T00:30:12;99464.47;;;16.01;54.10
83373;BME280;73281;50.882;5.984;2023-12-07T00:32:38;99458.63;;;15.99;54.11
83373;BME280;73281;50.882;5.984;2023-12-07T00:35:04;99469.13;;;16.01;53.49
83373;BME280;73281;50.882;5.984;2023-12-07T00:37:29;99471.88;;;16.01;54.16
83373;BME280;73281;50.882;5.984;2023-12-07T00:39:55;99473.41;;;16.02;54.25
83373;BME280;73281;50.882;5.984;2023-12-07T00:42:20;99467.94;;;16.02;53.76
83373;BME280;73281;50.882;5.984;2023-12-07T00:44:45;99473.47;;;15.98;54.06
83373;BME280;73281;50.882;5.984;2023-12-07T00:47:11;99472.28;;;15.99;54.06
83373;BME280;73281;50.882;5.984;2023-12-07T00:49:38;99464.16;;;15.96;54.20
83373;BME280;73281;50.882;5.984;2023-12-07T00:52:04;99469.59;;;15.96;54.06
83373;BME280;73281;50.882;5.984;2023-12-07T00:54:30;99468.03;;;15.95;54.11
83373;BME280;73281;50.882;5.984;2023-12-07T00:56:55;99463.81;;;15.90;54.34
83373;BME280;73281;50.882;5.984;2023-12-07T00:59:20;99471.53;;;15.95;54.01
83373;BME280;73281;50.882;5.984;2023-12-07T01:01:46;99470.75;;;15.95;54.35
83373;BME280;73281;50.882;5.984;2023-12-07T01:04:11;99469.22;;;15.94;54.17
83373;BME280;73281;50.882;5.984;2023-12-07T01:06:37;99468.03;;;15.95;53.92
83373;BME280;73281;50.882;5.984;2023-12-07T01:09:02;99469.22;;;15.94;53.55
83373;BME280;73281;50.882;5.984;2023-12-07T01:11:29;99468.47;;;15.93;53.90
83373;BME280;73281;50.882;5.984;2023-12-07T01:13:54;99477.41;;;15.94;53.86
83373;BME280;73281;50.882;5.984;2023-12-07T01:16:19;99475.81;;;15.96;53.99
83373;BME280;73281;50.882;5.984;2023-12-07T01:18:45;99477.00;;;15.95;53.55
83373;BME280;73281;50.882;5.984;2023-12-07T01:21:10;99484.47;;;15.91;54.14
83373;BME280;73281;50.882;5.984;2023-12-07T01:23:37;99481.72;;;15.91;54.00
83373;BME280;73281;50.882;5.984;2023-12-07T01:26:02;99487.97;;;15.92;53.88
83373;BME280;73281;50.882;5.984;2023-12-07T01:28:28;99490.31;;;15.90;53.75
83373;BME280;73281;50.882;5.984;2023-12-07T01:30:54;99492.31;;;15.86;53.75
83373;BME280;73281;50.882;5.984;2023-12-07T01:33:19;99499.31;;;15.87;53.93
83373;BME280;73281;50.882;5.984;2023-12-07T01:35:45;99495.00;;;15.89;53.99
83373;BME280;73281;50.882;5.984;2023-12-07T01:38:10;99491.91;;;15.87;53.95
83373;BME280;73281;50.882;5.984;2023-12-07T01:40:36;99503.19;;;15.89;54.08
83373;BME280;73281;50.882;5.984;2023-12-07T01:43:01;99508.25;;;15.91;53.84
83373;BME280;73281;50.882;5.984;2023-12-07T01:45:27;99495.44;;;15.88;53.58
83373;BME280;73281;50.882;5.984;2023-12-07T01:47:53;99503.16;;;15.93;53.48
83373;BME280;73281;50.882;5.984;2023-12-07T01:50:20;99500.03;;;15.94;53.66
83373;BME280;73281;50.882;5.984;2023-12-07T01:52:52;99498.47;;;15.93;53.13
83373;BME280;73281;50.882;5.984;2023-12-07T01:55:20;99502.78;;;15.91;53.49
83373;BME280;73281;50.882;5.984;2023-12-07T01:57:47;99498.16;;;15.88;52.25
83373;BME280;73281;50.882;5.984;2023-12-07T02:00:15;99487.28;;;15.84;52.91
83373;BME280;73281;50.882;5.984;2023-12-07T02:02:41;99490.00;;;15.84;53.59
83373;BME280;73281;50.882;5.984;2023-12-07T02:05:08;99488.81;;;15.85;53.47
83373;BME280;73281;50.882;5.984;2023-12-07T02:07:34;99484.53;;;15.84;53.69
83373;BME280;73281;50.882;5.984;2023-12-07T02:09:59;99482.59;;;15.85;53.57
83373;BME280;73281;50.882;5.984;2023-12-07T02:12:25;99481.41;;;15.86;53.58
83373;BME280;73281;50.882;5.984;2023-12-07T02:14:51;99488.41;;;15.87;53.62
83373;BME280;73281;50.882;5.984;2023-12-07T02:17:24;99495.44;;;15.88;53.78
83373;BME280;73281;50.882;5.984;2023-12-07T02:19:57;99489.97;;;15.88;53.53
83373;BME280;73281;50.882;5.984;2023-12-07T02:22:32;99491.13;;;15.87;53.16
83373;BME280;73281;50.882;5.984;2023-12-07T02:25:13;99486.09;;;15.85;53.64
83373;BME280;73281;50.882;5.984;2023-12-07T02:27:41;99480.31;;;15.80;53.65
83373;BME280;73281;50.882;5.984;2023-12-07T02:30:08;99480.63;;;15.85;53.62
83373;BME280;73281;50.882;5.984;2023-12-07T02:32:37;99477.94;;;15.82;53.45
83373;BME280;73281;50.882;5.984;2023-12-07T02:35:04;99480.69;;;15.82;53.68
83373;BME280;73281;50.882;5.984;2023-12-07T02:37:36;99479.09;;;15.84;53.77
83373;BME280;73281;50.882;5.984;2023-12-07T02:40:06;99491.53;;;15.85;53.77
83373;BME280;73281;50.882;5.984;2023-12-07T02:42:35;99495.44;;;15.88;53.75
83373;BME280;73281;50.882;5.984;2023-12-07T02:45:04;99488.41;;;15.87;53.93
83373;BME280;73281;50.882;5.984;2023-12-07T02:47:30;99498.16;;;15.88;53.58
83373;BME280;73281;50.882;5.984;2023-12-07T02:49:55;99489.97;;;15.88;53.62
83373;BME280;73281;50.882;5.984;2023-12-07T02:52:21;99495.44;;;15.88;53.77
83373;BME280;73281;50.882;5.984;2023-12-07T02:54:46;99487.66;;;15.86;53.73
83373;BME280;73281;50.882;5.984;2023-12-07T02:57:13;99484.91;;;15.86;53.77
83373;BME280;73281;50.882;5.984;2023-12-07T02:59:40;99484.59;;;15.81;53.71
83373;BME280;73281;50.882;5.984;2023-12-07T03:02:05;99490.38;;;15.86;53.34
83373;BME280;73281;50.882;5.984;2023-12-07T03:04:31;99461.94;;;15.84;53.34
83373;BME280;73281;50.882;5.984;2023-12-07T03:06:57;99469.31;;;15.87;53.52
83373;BME280;73281;50.882;5.984;2023-12-07T03:09:23;99463.84;;;15.87;53.56
83373;BME280;73281;50.882;5.984;2023-12-07T03:11:48;99469.31;;;15.87;53.39
83373;BME280;73281;50.882;5.984;2023-12-07T03:14:13;99461.53;;;15.85;53.36
83373;BME280;73281;50.882;5.984;2023-12-07T03:16:39;99459.59;;;15.86;53.35
83373;BME280;73281;50.882;5.984;2023-12-07T03:19:04;99456.06;;;15.85;53.30
83373;BME280;73281;50.882;5.984;2023-12-07T03:21:29;99462.31;;;15.86;53.02
83373;BME280;73281;50.882;5.984;2023-12-07T03:23:55;99458.03;;;15.85;52.84
83373;BME280;73281;50.882;5.984;2023-12-07T03:26:20;99456.47;;;15.84;53.20
83373;BME280;73281;50.882;5.984;2023-12-07T03:28:46;99456.94;;;15.79;52.96
83373;BME280;73281;50.882;5.984;2023-12-07T03:31:11;99456.91;;;15.82;52.91
83373;BME280;73281;50.882;5.984;2023-12-07T03:33:36;99459.22;;;15.84;53.11
83373;BME280;73281;50.882;5.984;2023-12-07T03:36:03;99456.91;;;15.82;52.95
83373;BME280;73281;50.882;5.984;2023-12-07T03:38:29;99452.63;;;15.81;53.15
83373;BME280;73281;50.882;5.984;2023-12-07T03:40:54;99453.03;;;15.80;52.99
83373;BME280;73281;50.882;5.984;2023-12-07T03:43:20;99454.94;;;15.83;52.94
83373;BME280;73281;50.882;5.984;2023-12-07T03:45:46;99454.53;;;15.84;52.95
83373;BME280;73281;50.882;5.984;2023-12-07T03:48:12;99447.94;;;15.82;53.19
83373;BME280;73281;50.882;5.984;2023-12-07T03:50:37;99448.72;;;15.82;52.51
83373;BME280;73281;50.882;5.984;2023-12-07T03:53:02;99443.69;;;15.81;52.83
83373;BME280;73281;50.882;5.984;2023-12-07T03:55:28;99444.06;;;15.79;52.78
83373;BME280;73281;50.882;5.984;2023-12-07T03:57:53;99449.53;;;15.79;52.83
83373;BME280;73281;50.882;5.984;2023-12-07T04:00:18;99451.06;;;15.80;52.93
83373;BME280;73281;50.882;5.984;2023-12-07T04:02:44;99456.53;;;15.80;53.16
83373;BME280;73281;50.882;5.984;2023-12-07T04:05:09;99452.63;;;15.81;52.98
83373;BME280;73281;50.882;5.984;2023-12-07T04:07:34;99462.00;;;15.80;53.19
83373;BME280;73281;50.882;5.984;2023-12-07T04:10:00;99464.72;;;15.80;53.22
83373;BME280;73281;50.882;5.984;2023-12-07T04:12:25;99466.66;;;15.80;53.07
83373;BME280;73281;50.882;5.984;2023-12-07T04:14:50;99469.38;;;15.80;53.23
83373;BME280;73281;50.882;5.984;2023-12-07T04:17:17;99463.94;;;15.80;53.29
83373;BME280;73281;50.882;5.984;2023-12-07T04:19:42;99465.91;;;15.79;53.18
83373;BME280;73281;50.882;5.984;2023-12-07T04:22:08;99467.84;;;15.79;53.29
83373;BME280;73281;50.882;5.984;2023-12-07T04:24:33;99470.56;;;15.79;53.82
83373;BME280;73281;50.882;5.984;2023-12-07T04:26:58;99471.75;;;15.78;53.36
83373;BME280;73281;50.882;5.984;2023-12-07T04:29:24;99462.78;;;15.77;53.75
83373;BME280;73281;50.882;5.984;2023-12-07T04:31:49;99469.03;;;15.78;53.38
83373;BME280;73281;50.882;5.984;2023-12-07T04:34:14;99470.22;;;15.77;53.87
83373;BME280;73281;50.882;5.984;2023-12-07T04:36:40;99475.69;;;15.77;53.34
83373;BME280;73281;50.882;5.984;2023-12-07T04:39:05;99481.13;;;15.77;53.40
83373;BME280;73281;50.882;5.984;2023-12-07T04:41:31;99476.44;;;15.77;53.44
83373;BME280;73281;50.882;5.984;2023-12-07T04:43:57;99481.88;;;15.77;53.34
83373;BME280;73281;50.882;5.984;2023-12-07T04:46:22;99490.88;;;15.78;53.40
83373;BME280;73281;50.882;5.984;2023-12-07T04:48:47;99493.59;;;15.78;53.37
83373;BME280;73281;50.882;5.984;2023-12-07T04:51:13;99499.81;;;15.78;53.18
83373;BME280;73281;50.882;5.984;2023-12-07T04:53:39;99509.97;;;15.78;53.22
83373;BME280;73281;50.882;5.984;2023-12-07T04:56:04;99514.22;;;15.79;53.39
83373;BME280;73281;50.882;5.984;2023-12-07T04:58:30;99519.31;;;15.77;53.28
83373;BME280;73281;50.882;5.984;2023-12-07T05:00:55;99512.28;;;15.79;53.00
83373;BME280;73281;50.882;5.984;2023-12-07T05:03:21;99515.75;;;15.80;52.96
83373;BME280;73281;50.882;5.984;2023-12-07T05:05:46;99513.03;;;15.80;52.89
83373;BME280;73281;50.882;5.984;2023-12-07T05:08:13;99500.59;;;15.79;52.98
83373;BME280;73281;50.882;5.984;2023-12-07T05:10:38;99499.03;;;15.78;52.64
83373;BME280;73281;50.882;5.984;2023-12-07T05:13:03;99507.97;;;15.78;52.91
83373;BME280;73281;50.882;5.984;2023-12-07T05:15:29;99502.53;;;15.78;52.92
83373;BME280;73281;50.882;5.984;2023-12-07T05:17:54;99500.59;;;15.79;52.71
83373;BME280;73281;50.882;5.984;2023-12-07T05:20:19;99499.81;;;15.78;52.50
83373;BME280;73281;50.882;5.984;2023-12-07T05:22:48;99497.06;;;15.78;52.72
83373;BME280;73281;50.882;5.984;2023-12-07T05:25:13;99488.53;;;15.76;52.45
83373;BME280;73281;50.882;5.984;2023-12-07T05:27:39;99500.63;;;15.75;52.70
83373;BME280;73281;50.882;5.984;2023-12-07T05:30:04;99499.84;;;15.75;52.61
83373;BME280;73281;50.882;5.984;2023-12-07T05:32:30;99497.13;;;15.75;52.61
83373;BME280;73281;50.882;5.984;2023-12-07T05:34:55;99499.44;;;15.76;52.65
83373;BME280;73281;50.882;5.984;2023-12-07T05:37:20;99495.19;;;15.75;52.56
83373;BME280;73281;50.882;5.984;2023-12-07T05:39:46;99481.53;;;15.75;52.50
83373;BME280;73281;50.882;5.984;2023-12-07T05:42:11;99488.94;;;15.75;52.52
83373;BME280;73281;50.882;5.984;2023-12-07T05:44:36;99487.00;;;15.75;52.50
83373;BME280;73281;50.882;5.984;2023-12-07T05:47:02;99475.31;;;15.75;51.89
83373;BME280;73281;50.882;5.984;2023-12-07T05:49:27;99470.25;;;15.73;52.18
83373;BME280;73281;50.882;5.984;2023-12-07T05:51:53;99472.16;;;15.76;52.26
83373;BME280;73281;50.882;5.984;2023-12-07T05:54:18;99470.56;;;15.79;52.12
83373;BME280;73281;50.882;5.984;2023-12-07T05:56:45;99461.19;;;15.80;51.60
83373;BME280;73281;50.882;5.984;2023-12-07T05:59:11;99456.94;;;15.79;51.49
83373;BME280;73281;50.882;5.984;2023-12-07T06:01:37;99462.44;;;15.75;51.74
83373;BME280;73281;50.882;5.984;2023-12-07T06:04:02;99454.28;;;15.72;51.55
83373;BME280;73281;50.882;5.984;2023-12-07T06:06:27;99461.72;;;15.71;51.91
83373;BME280;73281;50.882;5.984;2023-12-07T06:08:53;99453.06;;;15.76;52.12
83373;BME280;73281;50.882;5.984;2023-12-07T06:11:19;99448.72;;;15.82;51.72
83373;BME280;73281;50.882;5.984;2023-12-07T06:13:44;99451.34;;;15.89;51.11
83373;BME280;73281;50.882;5.984;2023-12-07T06:16:12;99441.53;;;15.95;51.18
83373;BME280;73281;50.882;5.984;2023-12-07T06:18:38;99444.63;;;15.97;51.27
83373;BME280;73281;50.882;5.984;2023-12-07T06:21:04;99443.78;;;16.00;50.59
83373;BME280;73281;50.882;5.984;2023-12-07T06:23:29;99440.25;;;16.03;51.07
83373;BME280;73281;50.882;5.984;2023-12-07T06:25:55;99440.63;;;16.05;50.72
83373;BME280;73281;50.882;5.984;2023-12-07T06:28:20;99440.97;;;16.07;50.79
83373;BME280;73281;50.882;5.984;2023-12-07T06:30:45;99438.66;;;16.06;50.08
83373;BME280;73281;50.882;5.984;2023-12-07T06:33:11;99431.31;;;16.03;50.46
83373;BME280;73281;50.882;5.984;2023-12-07T06:35:36;99431.03;;;15.94;51.07
83373;BME280;73281;50.882;5.984;2023-12-07T06:38:02;99431.91;;;15.87;51.13
83373;BME280;73281;50.882;5.984;2023-12-07T06:40:27;99431.09;;;15.90;51.19
83373;BME280;73281;50.882;5.984;2023-12-07T06:42:53;99429.50;;;15.89;51.28
83373;BME280;73281;50.882;5.984;2023-12-07T06:45:18;99432.25;;;15.89;50.92
83373;BME280;73281;50.882;5.984;2023-12-07T06:47:43;99430.69;;;15.88;51.94
83373;BME280;73281;50.882;5.984;2023-12-07T06:50:09;99429.56;;;15.86;52.28
83373;BME280;73281;50.882;5.984;2023-12-07T06:52:36;99439.28;;;15.90;52.14
83373;BME280;73281;50.882;5.984;2023-12-07T06:55:01;99431.03;;;15.94;52.06
83373;BME280;73281;50.882;5.984;2023-12-07T06:57:27;99435.03;;;15.86;50.87
83373;BME280;73281;50.882;5.984;2023-12-07T06:59:53;99433.56;;;15.78;50.93
83373;BME280;73281;50.882;5.984;2023-12-07T07:02:18;99429.38;;;15.70;52.38
83373;BME280;73281;50.882;5.984;2023-12-07T07:04:43;99426.66;;;15.70;52.24
83373;BME280;73281;50.882;5.984;2023-12-07T07:07:09;99423.56;;;15.68;52.01
83373;BME280;73281;50.882;5.984;2023-12-07T07:09:34;99421.22;;;15.66;52.11
83373;BME280;73281;50.882;5.984;2023-12-07T07:12:00;99423.97;;;15.66;52.11
83373;BME280;73281;50.882;5.984;2023-12-07T07:14:25;99413.44;;;15.68;52.11
83373;BME280;73281;50.882;5.984;2023-12-07T07:16:51;99413.44;;;15.68;52.66
83373;BME280;73281;50.882;5.984;2023-12-07T07:19:17;99426.66;;;15.70;52.20
83373;BME280;73281;50.882;5.984;2023-12-07T07:21:43;99414.97;;;15.69;52.80
83373;BME280;73281;50.882;5.984;2023-12-07T07:24:09;99420.88;;;15.64;53.21
83373;BME280;73281;50.882;5.984;2023-12-07T07:26:34;99417.78;;;15.62;53.28
83373;BME280;73281;50.882;5.984;2023-12-07T07:29:00;99424.03;;;15.59;52.64
83373;BME280;73281;50.882;5.984;2023-12-07T07:31:25;99433.81;;;15.57;53.21
83373;BME280;73281;50.882;5.984;2023-12-07T07:33:50;99428.34;;;15.57;53.53
83373;BME280;73281;50.882;5.984;2023-12-07T07:36:16;99442.78;;;15.57;53.85
83373;BME280;73281;50.882;5.984;2023-12-07T07:38:42;99447.84;;;15.55;53.69
83373;BME280;73281;50.882;5.984;2023-12-07T07:41:07;99438.47;;;15.56;53.55
83373;BME280;73281;50.882;5.984;2023-12-07T07:43:33;99443.50;;;15.61;55.06
83373;BME280;73281;50.882;5.984;2023-12-07T07:46:00;99440.31;;;15.66;54.67
83373;BME280;73281;50.882;5.984;2023-12-07T07:48:26;99443.44;;;15.68;54.70
83373;BME280;73281;50.882;5.984;2023-12-07T07:50:51;99444.97;;;15.69;54.24
83373;BME280;73281;50.882;5.984;2023-12-07T07:53:17;99448.09;;;15.68;54.56
83373;BME280;73281;50.882;5.984;2023-12-07T07:55:42;99451.63;;;15.65;54.06
83373;BME280;73281;50.882;5.984;2023-12-07T07:58:08;99448.97;;;15.58;53.18
83373;BME280;73281;50.882;5.984;2023-12-07T08:00:33;99454.91;;;15.53;53.52
83373;BME280;73281;50.882;5.984;2023-12-07T08:02:59;99449.84;;;15.51;52.97
83373;BME280;73281;50.882;5.984;2023-12-07T08:05:25;99450.69;;;15.45;52.05
83373;BME280;73281;50.882;5.984;2023-12-07T08:07:50;99443.78;;;15.37;51.93
83373;BME280;73281;50.882;5.984;2023-12-07T08:10:16;99441.06;;;15.37;51.45
83373;BME280;73281;50.882;5.984;2023-12-07T08:12:41;99428.19;;;15.34;51.24
83373;BME280;73281;50.882;5.984;2023-12-07T08:15:07;99422.78;;;15.30;50.97
83373;BME280;73281;50.882;5.984;2023-12-07T08:17:45;99424.28;;;15.35;51.44
83373;BME280;73281;50.882;5.984;2023-12-07T08:20:11;99423.91;;;15.33;50.30
83373;BME280;73281;50.882;5.984;2023-12-07T08:22:39;99415.34;;;15.38;51.14
83373;BME280;73281;50.882;5.984;2023-12-07T08:25:06;99400.59;;;15.28;50.94
83373;BME280;73281;50.882;5.984;2023-12-07T08:27:33;99414.59;;;15.30;49.34
83373;BME280;73281;50.882;5.984;2023-12-07T08:29:59;99404.50;;;15.27;50.21
83373;BME280;73281;50.882;5.984;2023-12-07T08:32:24;99412.25;;;15.29;49.55
83373;BME280;73281;50.882;5.984;2023-12-07T08:34:51;99412.56;;;15.41;50.10
83373;BME280;73281;50.882;5.984;2023-12-07T08:37:16;99399.66;;;15.45;48.21
83373;BME280;73281;50.882;5.984;2023-12-07T08:39:42;99404.94;;;15.59;49.17
83373;BME280;73281;50.882;5.984;2023-12-07T08:42:08;99407.75;;;15.86;48.37
83373;BME280;73281;50.882;5.984;2023-12-07T08:44:33;99408.44;;;16.20;47.66
83373;BME280;73281;50.882;5.984;2023-12-07T08:46:59;99411.63;;;16.45;46.84
83373;BME280;73281;50.882;5.984;2023-12-07T08:49:24;99402.81;;;16.61;46.27
83373;BME280;73281;50.882;5.984;2023-12-07T08:51:51;99400.00;;;16.64;45.33
83373;BME280;73281;50.882;5.984;2023-12-07T08:54:18;99408.16;;;16.68;45.86
83373;BME280;73281;50.882;5.984;2023-12-07T08:56:44;99420.69;;;16.88;45.11
83373;BME280;73281;50.882;5.984;2023-12-07T08:59:10;99419.56;;;17.09;44.85
83373;BME280;73281;50.882;5.984;2023-12-07T09:01:35;99417.81;;;17.41;44.55
83373;BME280;73281;50.882;5.984;2023-12-07T09:04:00;99425.59;;;17.62;43.35
83373;BME280;73281;50.882;5.984;2023-12-07T09:06:26;99424.91;;;17.78;43.59
83373;BME280;73281;50.882;5.984;2023-12-07T09:08:52;99416.69;;;17.97;43.46
83373;BME280;73281;50.882;5.984;2023-12-07T09:11:17;99415.03;;;18.19;43.38
83373;BME280;73281;50.882;5.984;2023-12-07T09:13:43;99416.88;;;18.42;42.27
83373;BME280;73281;50.882;5.984;2023-12-07T09:16:08;99425.81;;;18.62;42.72
83373;BME280;73281;50.882;5.984;2023-12-07T09:18:34;99428.91;;;18.80;42.39
83373;BME280;73281;50.882;5.984;2023-12-07T09:21:00;99433.25;;;18.93;42.15
83373;BME280;73281;50.882;5.984;2023-12-07T09:23:26;99432.81;;;19.11;41.84
83373;BME280;73281;50.882;5.984;2023-12-07T09:25:51;99433.25;;;19.25;41.74
83373;BME280;73281;50.882;5.984;2023-12-07T09:28:17;99433.66;;;19.40;41.37
83373;BME280;73281;50.882;5.984;2023-12-07T09:30:42;99427.09;;;19.50;41.30
83373;BME280;73281;50.882;5.984;2023-12-07T09:33:09;99430.41;;;19.58;40.60
83373;BME280;73281;50.882;5.984;2023-12-07T09:35:34;99427.03;;;19.66;40.48
83373;BME280;73281;50.882;5.984;2023-12-07T09:38:00;99419.41;;;19.74;40.23
83373;BME280;73281;50.882;5.984;2023-12-07T09:40:25;99422.81;;;19.78;39.58
83373;BME280;73281;50.882;5.984;2023-12-07T09:42:53;99418.41;;;19.80;39.43
83373;BME280;73281;50.882;5.984;2023-12-07T09:45:19;99415.59;;;19.84;39.79
83373;BME280;73281;50.882;5.984;2023-12-07T09:47:50;99409.09;;;19.90;39.60
83373;BME280;73281;50.882;5.984;2023-12-07T09:50:17;99397.13;;;19.97;38.07
83373;BME280;73281;50.882;5.984;2023-12-07T09:52:43;99381.66;;;20.03;37.24
83373;BME280;73281;50.882;5.984;2023-12-07T09:55:09;99376.16;;;20.03;38.07
83373;BME280;73281;50.882;5.984;2023-12-07T09:57:37;99381.09;;;20.08;38.60
83373;BME280;73281;50.882;5.984;2023-12-07T10:00:03;99375.19;;;20.09;37.72
83373;BME280;73281;50.882;5.984;2023-12-07T10:02:30;99371.91;;;20.14;39.13
83373;BME280;73281;50.882;5.984;2023-12-07T10:05:08;99364.31;;;20.18;38.95
83373;BME280;73281;50.882;5.984;2023-12-07T10:07:45;99361.78;;;20.24;38.98
83373;BME280;73281;50.882;5.984;2023-12-07T10:10:13;99364.75;;;20.29;38.78
83373;BME280;73281;50.882;5.984;2023-12-07T10:12:59;99362.22;;;20.35;38.71
83373;BME280;73281;50.882;5.984;2023-12-07T10:15:25;99353.97;;;20.35;36.67
83373;BME280;73281;50.882;5.984;2023-12-07T10:17:57;99342.34;;;20.31;37.54
83373;BME280;73281;50.882;5.984;2023-12-07T10:20:28;99335.31;;;20.30;38.32
83373;BME280;73281;50.882;5.984;2023-12-07T10:23:07;99326.63;;;20.19;35.77
83373;BME280;73281;50.882;5.984;2023-12-07T10:25:41;99328.59;;;20.18;37.55
83373;BME280;73281;50.882;5.984;2023-12-07T10:28:10;99328.06;;;20.11;37.31
83373;BME280;73281;50.882;5.984;2023-12-07T10:30:40;99325.06;;;20.05;37.09
83373;BME280;73281;50.882;5.984;2023-12-07T10:33:07;99311.00;;;20.03;37.47
83373;BME280;73281;50.882;5.984;2023-12-07T10:35:33;99303.41;;;20.07;38.05
83373;BME280;73281;50.882;5.984;2023-12-07T10:37:58;99302.31;;;20.05;36.59
83373;BME280;73281;50.882;5.984;2023-12-07T10:40:24;99296.84;;;20.05;36.97
83373;BME280;73281;50.882;5.984;2023-12-07T10:42:52;99301.13;;;20.06;36.99
83373;BME280;73281;50.882;5.984;2023-12-07T10:45:21;99297.94;;;20.07;37.29
83373;BME280;73281;50.882;5.984;2023-12-07T10:47:51;99288.06;;;19.97;35.97
83373;BME280;73281;50.882;5.984;2023-12-07T10:50:21;99285.84;;;19.92;36.98
83373;BME280;73281;50.882;5.984;2023-12-07T10:52:52;99284.97;;;19.83;35.90
83373;BME280;73281;50.882;5.984;2023-12-07T10:55:22;99276.00;;;19.82;37.67
83373;BME280;73281;50.882;5.984;2023-12-07T10:57:52;99288.50;;;19.83;37.93
83373;BME280;73281;50.882;5.984;2023-12-07T11:00:19;99275.00;;;19.76;37.59
83373;BME280;73281;50.882;5.984;2023-12-07T11:02:50;99277.28;;;19.65;37.48
83373;BME280;73281;50.882;5.984;2023-12-07T11:05:17;99272.34;;;19.60;37.80
83373;BME280;73281;50.882;5.984;2023-12-07T11:07:52;99267.72;;;19.44;36.80
83373;BME280;73281;50.882;5.984;2023-12-07T11:10:25;99263.09;;;19.41;38.28
83373;BME280;73281;50.882;5.984;2023-12-07T11:13:00;99257.72;;;19.38;36.77
83373;BME280;73281;50.882;5.984;2023-12-07T11:15:32;99261.53;;;19.28;38.24
83373;BME280;73281;50.882;5.984;2023-12-07T11:17:57;99253.81;;;19.23;35.68
83373;BME280;73281;50.882;5.984;2023-12-07T11:20:42;99254.97;;;19.09;36.61
83373;BME280;73281;50.882;5.984;2023-12-07T11:23:09;99259.75;;;18.93;38.00
83373;BME280;73281;50.882;5.984;2023-12-07T11:25:36;99264.19;;;18.74;37.45
83373;BME280;73281;50.882;5.984;2023-12-07T11:28:03;99257.63;;;18.56;37.32
83373;BME280;73281;50.882;5.984;2023-12-07T11:30:34;99260.84;;;18.38;38.53
83373;BME280;73281;50.882;5.984;2023-12-07T11:33:01;99251.03;;;18.21;39.44
83373;BME280;73281;50.882;5.984;2023-12-07T11:35:28;99249.53;;;18.04;39.77
83373;BME280;73281;50.882;5.984;2023-12-07T11:38:01;99245.25;;;17.87;38.84
83373;BME280;73281;50.882;5.984;2023-12-07T11:40:47;99251.41;;;17.75;40.64
83373;BME280;73281;50.882;5.984;2023-12-07T11:46:03;99232.34;;;17.52;39.32
83373;BME280;73281;50.882;5.984;2023-12-07T11:48:29;99235.19;;;17.49;40.71
83373;BME280;73281;50.882;5.984;2023-12-07T11:50:58;99222.78;;;17.44;41.02
83373;BME280;73281;50.882;5.984;2023-12-07T11:53:31;99216.97;;;17.42;40.16
83373;BME280;73281;50.882;5.984;2023-12-07T11:56:07;99219.75;;;17.39;40.89
83373;BME280;73281;50.882;5.984;2023-12-07T11:58:34;99214.09;;;17.30;41.56
83373;BME280;73281;50.882;5.984;2023-12-07T12:01:01;99204.00;;;17.27;42.07
83373;BME280;73281;50.882;5.984;2023-12-07T12:03:27;99203.22;;;17.26;42.22
83373;BME280;73281;50.882;5.984;2023-12-07T12:05:54;99202.19;;;17.20;41.00
83373;BME280;73281;50.882;5.984;2023-12-07T12:08:22;99194.13;;;17.13;42.28
83373;BME280;73281;50.882;5.984;2023-12-07T12:10:50;99199.59;;;17.13;42.56
83373;BME280;73281;50.882;5.984;2023-12-07T12:13:18;99203.09;;;17.14;42.76
83373;BME280;73281;50.882;5.984;2023-12-07T12:15:45;99186.50;;;17.05;42.52
83373;BME280;73281;50.882;5.984;2023-12-07T12:18:11;99188.19;;;16.99;42.83
83373;BME280;73281;50.882;5.984;2023-12-07T12:20:39;99190.16;;;16.98;43.10
83373;BME280;73281;50.882;5.984;2023-12-07T12:23:05;99178.03;;;16.99;43.43
83373;BME280;73281;50.882;5.984;2023-12-07T12:25:31;99176.69;;;16.88;40.87
83373;BME280;73281;50.882;5.984;2023-12-07T12:27:59;99173.28;;;16.84;43.36
83373;BME280;73281;50.882;5.984;2023-12-07T12:30:27;99158.31;;;16.72;42.64
83373;BME280;73281;50.882;5.984;2023-12-07T12:32:53;99150.16;;;16.69;43.71
83373;BME280;73281;50.882;5.984;2023-12-07T12:35:18;99143.34;;;16.77;43.90
83373;BME280;73281;50.882;5.984;2023-12-07T12:37:45;99119.69;;;16.70;43.46
83373;BME280;73281;50.882;5.984;2023-12-07T12:40:13;99117.31;;;16.72;42.25
83373;BME280;73281;50.882;5.984;2023-12-07T12:42:42;99107.03;;;16.60;40.94
83373;BME280;73281;50.882;5.984;2023-12-07T12:45:08;99096.19;;;16.57;43.79
83373;BME280;73281;50.882;5.984;2023-12-07T12:47:35;99094.19;;;16.57;42.84
83373;BME280;73281;50.882;5.984;2023-12-07T12:50:02;99086.94;;;16.51;42.50
83373;BME280;73281;50.882;5.984;2023-12-07T12:52:29;99080.22;;;16.55;43.64
83373;BME280;73281;50.882;5.984;2023-12-07T12:54:56;99081.59;;;16.63;43.79
83373;BME280;73281;50.882;5.984;2023-12-07T12:57:22;99080.06;;;16.62;43.48
83373;BME280;73281;50.882;5.984;2023-12-07T12:59:47;99084.47;;;16.56;42.77